Bookmark and Share
Track history (hours):
 

Amy C. Mc Allister

More information available from US FCC via Universal Licensing System and Coast Guard Vessel Documentation Center.

Last reported at 2014-Apr-23 21:25 UTC. Time now 2014-Apr-24 04:30 UTC.
Position N 41°24' W 071°07'.

Length 27 m; draft 4.9 m.

Type: Towing. MMSI: 366995040.

NotesDate/timePositionNaut miles runAvg speedWind from/ knotsBaromVisibWave heightAir tempDewpointWater temp
2014-Apr-23 21:25N 41°24' W 071°07'7 7.1
2014-Apr-23 20:30N 41°23' W 071°15'7 5.8
2014-Apr-23 19:17N 41°21' W 071°24'5 6.4
2014-Apr-23 18:33N 41°18' W 071°29'7 7.1
2014-Apr-23 17:33N 41°17' W 071°38'8 7.5
2014-Apr-23 16:33N 41°16' W 071°48'8 8.2
2014-Apr-23 15:33N 41°14' W 071°59'9 9.3
2014-Apr-23 14:33N 41°13' W 072°11'10 9.6
2014-Apr-23 13:33N 41°10' W 072°23'9 8.9
2014-Apr-23 12:33N 41°08' W 072°34'8 7.9
2014-Apr-23 11:33N 41°06' W 072°45'7 7.3
2014-Apr-23 10:33N 41°05' W 072°54'7 6.9
2014-Apr-23 09:33N 41°03' W 073°03'7 6.5
2014-Apr-23 08:32N 41°02' W 073°12'7 6.7
2014-Apr-23 07:33N 41°01' W 073°20'6 6.0
2014-Apr-23 06:33N 40°59' W 073°28'8 7.1
2014-Apr-23 05:23N 40°55' W 073°38'12 6.0
2014-Apr-23 03:19N 40°48' W 073°51'5 6.4
2014-Apr-23 02:31N 40°46' W 073°57'6 5.8
2014-Apr-23 01:33N 40°41' W 074°01'2 2.4
2014-Apr-23 00:33N 40°39' W 074°03'0 0.0
2014-Apr-22 23:33N 40°39' W 074°03'6 6.1
2014-Apr-22 22:33N 40°39' W 074°11'3 2.3
2014-Apr-22 21:20N 40°36' W 074°12'3 3.3
2014-Apr-22 20:28N 40°38' W 074°10'0 0.0
2014-Apr-22 19:33N 40°38' W 074°10'0 0.0
2014-Apr-22 18:32N 40°38' W 074°10'0 0.3
2014-Apr-22 17:33N 40°39' W 074°10'1 0.2
2014-Apr-22 13:33N 40°39' W 074°11'1 0.8
2014-Apr-22 12:33N 40°39' W 074°10'0 0.0
2014-Apr-22 11:33N 40°39' W 074°10'0 0.0
2014-Apr-22 10:34N 40°39' W 074°10'3 3.2
2014-Apr-22 09:33N 40°39' W 074°06'0 0.0
2014-Apr-22 08:33N 40°39' W 074°06'4 3.7
2014-Apr-22 07:33N 40°39' W 074°11'3 2.0
2014-Apr-22 06:10N 40°36' W 074°12'3 4.4
2014-Apr-22 05:32N 40°39' W 074°11'7 6.9
2014-Apr-22 04:33N 40°41' W 074°02'3 3.1
2014-Apr-22 03:33N 40°43' W 073°59'7 6.7
2014-Apr-22 02:33N 40°48' W 073°54'8 7.4
2014-Apr-22 01:29N 40°52' W 073°45'10 8.8
2014-Apr-22 00:24N 40°57' W 073°34'8 8.9
2014-Apr-21 23:33N 41°00' W 073°25'9 9.1
2014-Apr-21 22:33N 41°00' W 073°13'6 6.2
2014-Apr-21 21:33N 40°58' W 073°05'0 0.1
2014-Apr-21 18:18N 40°58' W 073°05'0 0.0
2014-Apr-21 17:33N 40°58' W 073°05'0 0.0
2014-Apr-21 16:33N 40°58' W 073°05'0 0.0
2014-Apr-21 15:33N 40°58' W 073°05'0 0.0
2014-Apr-21 14:33N 40°58' W 073°05'0 0.0
2014-Apr-21 13:18N 40°58' W 073°05'0 0.0
2014-Apr-21 12:28N 40°58' W 073°05'0 0.0
2014-Apr-21 11:33N 40°58' W 073°05'0 0.0
2014-Apr-21 10:32N 40°58' W 073°05'0 0.0
2014-Apr-21 09:34N 40°58' W 073°05'0 0.0
2014-Apr-21 08:34N 40°58' W 073°05'1 0.7
2014-Apr-21 07:33N 40°57' W 073°04'2 2.0
2014-Apr-21 06:33N 40°59' W 073°06'7 6.8
2014-Apr-21 05:33N 40°60' W 073°15'7 7.1
2014-Apr-21 04:33N 41°00' W 073°24'7 7.0
2014-Apr-21 03:33N 40°57' W 073°32'7 7.2
2014-Apr-21 02:33N 40°54' W 073°41'7 7.0
2014-Apr-21 01:33N 40°49' W 073°47'6 6.4
2014-Apr-21 00:33N 40°47' W 073°55'5 5.3
2014-Apr-20 23:33N 40°43' W 073°59'5 5.1
2014-Apr-20 22:33N 40°38' W 074°03'0 0.4
2014-Apr-20 21:33N 40°38' W 074°03'6 5.9
2014-Apr-20 20:32N 40°39' W 074°11'4 3.1
2014-Apr-20 19:16N 40°35' W 074°13'2 1.0
2014-Apr-20 17:11N 40°33' W 074°15'0 0.0
2014-Apr-20 12:25N 40°33' W 074°15'3 2.7
2014-Apr-20 11:14N 40°36' W 074°12'3 0.6
2014-Apr-20 06:33N 40°38' W 074°10'0 0.0
2014-Apr-20 05:33N 40°38' W 074°10'0 0.0
2014-Apr-20 04:33N 40°38' W 074°10'2 0.6
2014-Apr-20 01:09N 40°37' W 074°12'4 7.3
2014-Apr-20 00:33N 40°39' W 074°07'3 1.7
2014-Apr-19 22:33N 40°39' W 074°11'6 6.3
2014-Apr-19 21:33N 40°39' W 074°03'0 0.2
2014-Apr-19 20:33N 40°39' W 074°03'0 0.0
2014-Apr-19 19:33N 40°39' W 074°03'0 0.0
2014-Apr-19 18:33N 40°39' W 074°03'0 0.0
2014-Apr-19 17:33N 40°39' W 074°03'0 0.0
2014-Apr-19 16:33N 40°39' W 074°03'0 0.0
2014-Apr-19 15:33N 40°39' W 074°03'0 0.0
2014-Apr-19 14:33N 40°39' W 074°03'0 0.1
2014-Apr-19 13:33N 40°39' W 074°03'0 0.1
2014-Apr-19 12:34N 40°39' W 074°03'0 0.0
2014-Apr-19 11:33N 40°39' W 074°03'0 0.0
2014-Apr-19 10:33N 40°39' W 074°03'0 0.0
2014-Apr-19 09:33N 40°39' W 074°03'0 0.0
2014-Apr-19 08:33N 40°39' W 074°03'0 0.0
2014-Apr-19 07:33N 40°39' W 074°03'0 0.0
2014-Apr-19 06:33N 40°39' W 074°03'0 0.1
2014-Apr-19 05:33N 40°39' W 074°03'0 0.0
2014-Apr-19 04:33N 40°39' W 074°03'0 0.0
2014-Apr-19 03:33N 40°39' W 074°03'0 0.0
2014-Apr-19 02:33N 40°39' W 074°03'0 0.0
2014-Apr-19 01:33N 40°39' W 074°03'0 0.1
2014-Apr-19 00:33N 40°39' W 074°03'0 0.0
2014-Apr-18 23:33N 40°39' W 074°03'0 0.0
2014-Apr-18 22:33N 40°39' W 074°03'0 0.0
2014-Apr-18 21:33N 40°39' W 074°03'0 0.0
2014-Apr-18 20:33N 40°39' W 074°03'0 0.0
2014-Apr-18 19:33N 40°39' W 074°03'0 0.0
2014-Apr-18 18:33N 40°39' W 074°03'0 0.1
2014-Apr-18 17:33N 40°39' W 074°03'0 0.0
2014-Apr-18 16:33N 40°39' W 074°03'0 0.1
2014-Apr-18 15:33N 40°39' W 074°03'3 3.1
2014-Apr-18 14:33N 40°42' W 074°02'5 4.7
2014-Apr-18 13:33N 40°46' W 073°57'5 5.2
2014-Apr-18 12:33N 40°48' W 073°51'7 7.4
2014-Apr-18 11:33N 40°53' W 073°44'8 8.4
2014-Apr-18 10:33N 40°57' W 073°34'8 8.1
2014-Apr-18 09:33N 41°00' W 073°24'7 6.7
2014-Apr-18 08:33N 41°01' W 073°15'7 6.5
2014-Apr-18 07:33N 41°02' W 073°07'7 6.6
2014-Apr-18 06:33N 41°03' W 072°58'7 6.9
2014-Apr-18 05:33N 41°05' W 072°50'7 7.1
2014-Apr-18 04:33N 41°07' W 072°40'8 7.5
2014-Apr-18 03:33N 41°09' W 072°31'9 8.7
2014-Apr-18 02:34N 41°11' W 072°20'9 9.1
2014-Apr-18 01:33N 41°14' W 072°08'9 9.3
2014-Apr-18 00:33N 41°15' W 071°56'9 9.1
2014-Apr-17 23:33N 41°17' W 071°44'9 9.1
2014-Apr-17 22:34N 41°18' W 071°32'9 9.1
2014-Apr-17 21:33N 41°22' W 071°21'10 9.9
2014-Apr-17 20:33N 41°24' W 071°08'10 9.9
2014-Apr-17 19:30N 41°29' W 070°56'52 5.5
2014-Apr-17 10:04N 42°20' W 070°58'0 0.3
2014-Apr-17 09:18N 42°20' W 070°58'4 4.7
2014-Apr-17 08:29N 42°23' W 071°02'1 0.6
2014-Apr-17 06:32N 42°24' W 071°01'0 0.0
2014-Apr-17 05:33N 42°24' W 071°01'0 0.0
2014-Apr-17 04:33N 42°24' W 071°01'0 0.0
2014-Apr-17 03:33N 42°24' W 071°01'0 0.0
2014-Apr-17 02:13N 42°24' W 071°01'0 0.0
2014-Apr-17 01:30N 42°24' W 071°01'0 0.0
2014-Apr-16 23:31N 42°24' W 071°01'0 0.0
2014-Apr-16 22:23N 42°24' W 071°01'0 0.0
2014-Apr-16 21:22N 42°24' W 071°01'0 0.0
2014-Apr-16 20:05N 42°24' W 071°01'0 0.0
2014-Apr-16 17:33N 42°24' W 071°01'1 1.4
2014-Apr-16 16:33N 42°23' W 071°02'4 4.1
2014-Apr-16 15:33N 42°20' W 070°59'0 0.0
2014-Apr-16 12:33N 42°20' W 070°59'0 0.0
2014-Apr-16 11:33N 42°20' W 070°59'0 0.1
2014-Apr-16 10:33N 42°20' W 070°58'0 0.0
2014-Apr-16 09:31N 42°20' W 070°58'0 0.0
2014-Apr-16 08:33N 42°20' W 070°58'0 0.0
2014-Apr-16 07:33N 42°20' W 070°58'0 0.0
2014-Apr-16 06:20N 42°20' W 070°58'0 0.0
2014-Apr-16 05:33N 42°20' W 070°58'0 0.0
2014-Apr-16 04:33N 42°20' W 070°59'0 0.0
2014-Apr-16 03:33N 42°20' W 070°59'0 0.1
2014-Apr-16 02:33N 42°20' W 070°59'0 0.1
2014-Apr-16 01:33N 42°20' W 070°59'0 0.1
2014-Apr-16 00:33N 42°20' W 070°59'0 0.0
2014-Apr-15 23:33N 42°20' W 070°59'0 0.0
2014-Apr-15 22:33N 42°20' W 070°59'0 0.0
2014-Apr-15 21:33N 42°20' W 070°58'0 0.0
2014-Apr-15 20:33N 42°20' W 070°59'0 0.0
2014-Apr-15 19:33N 42°20' W 070°58'0 0.0
2014-Apr-15 18:33N 42°20' W 070°59'0 0.0
2014-Apr-15 17:33N 42°20' W 070°59'0 0.0
2014-Apr-15 16:33N 42°20' W 070°59'0 0.0
2014-Apr-15 15:33N 42°20' W 070°59'0 0.1
2014-Apr-15 14:33N 42°20' W 070°59'0 0.0
2014-Apr-15 12:34N 42°20' W 070°59'0 0.0
2014-Apr-15 11:34N 42°20' W 070°59'0 0.0
2014-Apr-15 10:34N 42°20' W 070°59'0 0.5
2014-Apr-15 09:34N 42°20' W 070°58'2 2.3
2014-Apr-15 08:33N 42°22' W 070°56'48 4.8
2014-Apr-14 22:32N 41°35' W 070°43'6 6.4
2014-Apr-14 21:31N 41°30' W 070°50'15 7.6
2014-Apr-14 19:33N 41°24' W 071°08'7 7.1
2014-Apr-14 18:33N 41°23' W 071°17'7 6.8
2014-Apr-14 17:33N 41°20' W 071°25'7 7.4
2014-Apr-14 16:34N 41°18' W 071°35'8 7.9
2014-Apr-14 15:32N 41°16' W 071°45'7 6.8
2014-Apr-14 14:34N 41°15' W 071°54'7 6.6
2014-Apr-14 13:34N 41°14' W 072°03'11 5.6
2014-Apr-14 11:34N 41°12' W 072°17'6 6.0
2014-Apr-14 10:34N 41°10' W 072°25'6 6.1
2014-Apr-14 09:33N 41°08' W 072°33'7 7.2
2014-Apr-14 08:33N 41°07' W 072°42'8 7.6
2014-Apr-14 07:33N 41°05' W 072°52'8 8.1
2014-Apr-14 06:33N 41°03' W 073°02'8 8.2
2014-Apr-14 05:33N 41°02' W 073°13'52 7.3
2014-Apr-13 22:30N 40°36' W 074°12'  

Dump ship's entire track history

sailing weather and tide predictions

Amy C. Mc Allister — WCZ9520 — position and weather